sensor_id;sensor_type;location;lat;lon;timestamp;P1;durP1;ratioP1;P2;durP2;ratioP2
67930;SDS011;54726;52.000;5.954;2022-07-23T00:00:03;3.75;;;2.03;;
67930;SDS011;54726;52.000;5.954;2022-07-23T00:01:04;4.43;;;1.83;;
67930;SDS011;54726;52.000;5.954;2022-07-23T00:02:05;5.88;;;2.25;;
67930;SDS011;54726;52.000;5.954;2022-07-23T00:03:05;5.18;;;1.98;;
67930;SDS011;54726;52.000;5.954;2022-07-23T00:04:06;5.45;;;2.00;;
67930;SDS011;54726;52.000;5.954;2022-07-23T00:05:06;5.60;;;2.28;;
67930;SDS011;54726;52.000;5.954;2022-07-23T00:06:07;4.63;;;2.10;;
67930;SDS011;54726;52.000;5.954;2022-07-23T00:07:08;3.25;;;1.95;;
67930;SDS011;54726;52.000;5.954;2022-07-23T00:08:08;6.22;;;2.17;;
67930;SDS011;54726;52.000;5.954;2022-07-23T00:09:09;4.25;;;1.73;;
67930;SDS011;54726;52.000;5.954;2022-07-23T00:10:09;5.38;;;1.98;;
67930;SDS011;54726;52.000;5.954;2022-07-23T00:11:10;4.07;;;2.40;;
67930;SDS011;54726;52.000;5.954;2022-07-23T00:12:10;4.90;;;2.22;;
67930;SDS011;54726;52.000;5.954;2022-07-23T00:13:11;7.72;;;2.20;;
67930;SDS011;54726;52.000;5.954;2022-07-23T00:14:12;7.47;;;2.30;;
67930;SDS011;54726;52.000;5.954;2022-07-23T00:15:13;3.05;;;2.10;;
67930;SDS011;54726;52.000;5.954;2022-07-23T00:16:13;4.22;;;2.13;;
67930;SDS011;54726;52.000;5.954;2022-07-23T00:17:14;7.13;;;2.15;;
67930;SDS011;54726;52.000;5.954;2022-07-23T00:18:14;7.60;;;2.10;;
67930;SDS011;54726;52.000;5.954;2022-07-23T00:19:15;4.18;;;2.03;;
67930;SDS011;54726;52.000;5.954;2022-07-23T00:20:15;9.15;;;2.60;;
67930;SDS011;54726;52.000;5.954;2022-07-23T00:21:16;4.18;;;2.10;;
67930;SDS011;54726;52.000;5.954;2022-07-23T00:22:16;3.60;;;2.20;;
67930;SDS011;54726;52.000;5.954;2022-07-23T00:23:17;4.97;;;2.40;;
67930;SDS011;54726;52.000;5.954;2022-07-23T00:24:17;4.07;;;2.10;;
67930;SDS011;54726;52.000;5.954;2022-07-23T00:25:18;4.57;;;2.20;;
67930;SDS011;54726;52.000;5.954;2022-07-23T00:26:19;4.47;;;2.50;;
67930;SDS011;54726;52.000;5.954;2022-07-23T00:27:19;10.23;;;2.25;;
67930;SDS011;54726;52.000;5.954;2022-07-23T00:28:20;4.40;;;2.20;;
67930;SDS011;54726;52.000;5.954;2022-07-23T00:29:21;5.85;;;2.13;;
67930;SDS011;54726;52.000;5.954;2022-07-23T00:30:22;6.28;;;2.15;;
67930;SDS011;54726;52.000;5.954;2022-07-23T00:31:22;4.00;;;2.10;;
67930;SDS011;54726;52.000;5.954;2022-07-23T00:32:23;3.88;;;2.03;;
67930;SDS011;54726;52.000;5.954;2022-07-23T00:33:23;4.25;;;2.17;;
67930;SDS011;54726;52.000;5.954;2022-07-23T00:34:23;6.32;;;2.20;;
67930;SDS011;54726;52.000;5.954;2022-07-23T00:35:24;2.58;;;1.98;;
67930;SDS011;54726;52.000;5.954;2022-07-23T00:36:26;5.60;;;2.22;;
67930;SDS011;54726;52.000;5.954;2022-07-23T00:37:26;3.92;;;2.40;;
67930;SDS011;54726;52.000;5.954;2022-07-23T00:38:27;6.93;;;2.30;;
67930;SDS011;54726;52.000;5.954;2022-07-23T00:39:27;6.50;;;2.20;;
67930;SDS011;54726;52.000;5.954;2022-07-23T00:40:28;7.40;;;2.95;;
67930;SDS011;54726;52.000;5.954;2022-07-23T00:41:29;5.22;;;2.30;;
67930;SDS011;54726;52.000;5.954;2022-07-23T00:42:30;4.30;;;2.10;;
67930;SDS011;54726;52.000;5.954;2022-07-23T00:43:31;5.03;;;2.25;;
67930;SDS011;54726;52.000;5.954;2022-07-23T00:44:32;5.88;;;2.10;;
67930;SDS011;54726;52.000;5.954;2022-07-23T00:45:33;3.10;;;1.92;;
67930;SDS011;54726;52.000;5.954;2022-07-23T00:46:33;6.30;;;2.17;;
67930;SDS011;54726;52.000;5.954;2022-07-23T00:47:34;6.47;;;2.35;;
67930;SDS011;54726;52.000;5.954;2022-07-23T00:48:35;5.07;;;2.20;;
67930;SDS011;54726;52.000;5.954;2022-07-23T00:49:35;6.80;;;2.10;;
67930;SDS011;54726;52.000;5.954;2022-07-23T00:50:35;4.00;;;2.17;;
67930;SDS011;54726;52.000;5.954;2022-07-23T00:51:36;3.58;;;2.00;;
67930;SDS011;54726;52.000;5.954;2022-07-23T00:52:37;3.65;;;2.50;;
67930;SDS011;54726;52.000;5.954;2022-07-23T00:53:38;3.33;;;2.10;;
67930;SDS011;54726;52.000;5.954;2022-07-23T00:54:38;4.20;;;2.28;;
67930;SDS011;54726;52.000;5.954;2022-07-23T00:55:39;2.75;;;1.95;;
67930;SDS011;54726;52.000;5.954;2022-07-23T00:56:40;6.38;;;2.70;;
67930;SDS011;54726;52.000;5.954;2022-07-23T00:57:41;4.20;;;2.38;;
67930;SDS011;54726;52.000;5.954;2022-07-23T00:58:42;4.20;;;2.55;;
67930;SDS011;54726;52.000;5.954;2022-07-23T00:59:44;5.45;;;2.30;;
67930;SDS011;54726;52.000;5.954;2022-07-23T01:00:44;3.78;;;2.30;;
67930;SDS011;54726;52.000;5.954;2022-07-23T01:01:45;3.63;;;2.20;;
67930;SDS011;54726;52.000;5.954;2022-07-23T01:02:45;3.13;;;2.40;;
67930;SDS011;54726;52.000;5.954;2022-07-23T01:03:46;6.57;;;2.53;;
67930;SDS011;54726;52.000;5.954;2022-07-23T01:04:46;5.07;;;2.70;;
67930;SDS011;54726;52.000;5.954;2022-07-23T01:05:46;3.75;;;2.47;;
67930;SDS011;54726;52.000;5.954;2022-07-23T01:06:47;8.48;;;2.58;;
67930;SDS011;54726;52.000;5.954;2022-07-23T01:07:47;3.30;;;2.45;;
67930;SDS011;54726;52.000;5.954;2022-07-23T01:08:48;4.93;;;2.47;;
67930;SDS011;54726;52.000;5.954;2022-07-23T01:09:49;7.25;;;2.33;;
67930;SDS011;54726;52.000;5.954;2022-07-23T01:10:50;4.05;;;2.40;;
67930;SDS011;54726;52.000;5.954;2022-07-23T01:11:51;6.50;;;2.22;;
67930;SDS011;54726;52.000;5.954;2022-07-23T01:12:54;5.40;;;2.63;;
67930;SDS011;54726;52.000;5.954;2022-07-23T01:13:55;5.88;;;2.50;;
67930;SDS011;54726;52.000;5.954;2022-07-23T01:14:57;3.88;;;2.13;;
67930;SDS011;54726;52.000;5.954;2022-07-23T01:15:59;4.57;;;2.40;;
67930;SDS011;54726;52.000;5.954;2022-07-23T01:16:59;6.72;;;2.40;;
67930;SDS011;54726;52.000;5.954;2022-07-23T01:18:00;6.00;;;2.40;;
67930;SDS011;54726;52.000;5.954;2022-07-23T01:19:00;4.82;;;2.60;;
67930;SDS011;54726;52.000;5.954;2022-07-23T01:20:01;3.80;;;2.13;;
67930;SDS011;54726;52.000;5.954;2022-07-23T01:21:02;6.32;;;2.75;;
67930;SDS011;54726;52.000;5.954;2022-07-23T01:22:03;4.82;;;2.53;;
67930;SDS011;54726;52.000;5.954;2022-07-23T01:23:05;4.72;;;2.58;;
67930;SDS011;54726;52.000;5.954;2022-07-23T01:24:06;4.97;;;2.20;;
67930;SDS011;54726;52.000;5.954;2022-07-23T01:25:07;6.60;;;2.60;;
67930;SDS011;54726;52.000;5.954;2022-07-23T01:26:08;5.18;;;2.58;;
67930;SDS011;54726;52.000;5.954;2022-07-23T01:27:08;4.82;;;2.55;;
67930;SDS011;54726;52.000;5.954;2022-07-23T01:28:09;10.50;;;2.75;;
67930;SDS011;54726;52.000;5.954;2022-07-23T01:29:09;6.78;;;2.38;;
67930;SDS011;54726;52.000;5.954;2022-07-23T01:30:10;8.48;;;2.38;;
67930;SDS011;54726;52.000;5.954;2022-07-23T01:31:12;3.58;;;2.20;;
67930;SDS011;54726;52.000;5.954;2022-07-23T01:32:12;4.65;;;2.58;;
67930;SDS011;54726;52.000;5.954;2022-07-23T01:33:12;9.63;;;2.15;;
67930;SDS011;54726;52.000;5.954;2022-07-23T01:34:13;5.25;;;2.33;;
67930;SDS011;54726;52.000;5.954;2022-07-23T01:35:14;6.20;;;2.30;;
67930;SDS011;54726;52.000;5.954;2022-07-23T01:36:14;5.07;;;2.22;;
67930;SDS011;54726;52.000;5.954;2022-07-23T01:37:14;4.28;;;2.25;;
67930;SDS011;54726;52.000;5.954;2022-07-23T01:38:16;4.97;;;2.50;;
67930;SDS011;54726;52.000;5.954;2022-07-23T01:39:17;4.45;;;2.50;;
67930;SDS011;54726;52.000;5.954;2022-07-23T01:40:17;4.55;;;2.15;;
67930;SDS011;54726;52.000;5.954;2022-07-23T01:41:18;5.47;;;2.33;;
67930;SDS011;54726;52.000;5.954;2022-07-23T01:42:18;4.10;;;2.28;;
67930;SDS011;54726;52.000;5.954;2022-07-23T01:43:18;4.13;;;2.40;;
67930;SDS011;54726;52.000;5.954;2022-07-23T01:44:19;8.80;;;2.53;;
67930;SDS011;54726;52.000;5.954;2022-07-23T01:45:19;5.18;;;3.03;;
67930;SDS011;54726;52.000;5.954;2022-07-23T01:46:20;3.15;;;2.30;;
67930;SDS011;54726;52.000;5.954;2022-07-23T01:47:20;6.57;;;2.38;;
67930;SDS011;54726;52.000;5.954;2022-07-23T01:48:21;4.18;;;1.98;;
67930;SDS011;54726;52.000;5.954;2022-07-23T01:49:21;5.97;;;2.50;;
67930;SDS011;54726;52.000;5.954;2022-07-23T01:50:22;5.82;;;2.50;;
67930;SDS011;54726;52.000;5.954;2022-07-23T01:51:22;7.35;;;2.63;;
67930;SDS011;54726;52.000;5.954;2022-07-23T01:52:22;5.85;;;2.53;;
67930;SDS011;54726;52.000;5.954;2022-07-23T01:53:24;6.32;;;2.30;;
67930;SDS011;54726;52.000;5.954;2022-07-23T01:54:25;5.57;;;2.20;;
67930;SDS011;54726;52.000;5.954;2022-07-23T01:55:25;4.05;;;2.38;;
67930;SDS011;54726;52.000;5.954;2022-07-23T01:56:26;5.68;;;2.55;;
67930;SDS011;54726;52.000;5.954;2022-07-23T01:57:26;4.18;;;2.25;;
67930;SDS011;54726;52.000;5.954;2022-07-23T01:58:27;4.82;;;2.28;;
67930;SDS011;54726;52.000;5.954;2022-07-23T01:59:27;5.10;;;2.17;;
67930;SDS011;54726;52.000;5.954;2022-07-23T02:00:28;5.22;;;2.30;;
67930;SDS011;54726;52.000;5.954;2022-07-23T02:01:28;4.10;;;2.33;;
67930;SDS011;54726;52.000;5.954;2022-07-23T02:02:29;6.18;;;2.30;;
67930;SDS011;54726;52.000;5.954;2022-07-23T02:03:29;10.35;;;2.40;;
67930;SDS011;54726;52.000;5.954;2022-07-23T02:04:30;6.07;;;2.10;;
67930;SDS011;54726;52.000;5.954;2022-07-23T02:05:30;4.50;;;2.10;;
67930;SDS011;54726;52.000;5.954;2022-07-23T02:06:31;5.07;;;2.30;;
67930;SDS011;54726;52.000;5.954;2022-07-23T02:07:31;5.57;;;2.50;;
67930;SDS011;54726;52.000;5.954;2022-07-23T02:08:33;3.85;;;2.05;;
67930;SDS011;54726;52.000;5.954;2022-07-23T02:09:33;5.70;;;2.40;;
67930;SDS011;54726;52.000;5.954;2022-07-23T02:10:34;8.65;;;2.15;;
67930;SDS011;54726;52.000;5.954;2022-07-23T02:11:34;4.47;;;2.50;;
67930;SDS011;54726;52.000;5.954;2022-07-23T02:12:34;2.75;;;1.98;;
67930;SDS011;54726;52.000;5.954;2022-07-23T02:13:35;4.55;;;2.10;;
67930;SDS011;54726;52.000;5.954;2022-07-23T02:14:35;3.63;;;2.10;;
67930;SDS011;54726;52.000;5.954;2022-07-23T02:15:36;5.97;;;2.20;;
67930;SDS011;54726;52.000;5.954;2022-07-23T02:16:36;5.10;;;2.25;;
67930;SDS011;54726;52.000;5.954;2022-07-23T02:17:36;4.10;;;2.13;;
67930;SDS011;54726;52.000;5.954;2022-07-23T02:18:37;4.22;;;2.30;;
67930;SDS011;54726;52.000;5.954;2022-07-23T02:19:37;6.70;;;2.13;;
67930;SDS011;54726;52.000;5.954;2022-07-23T02:20:38;5.80;;;2.05;;
67930;SDS011;54726;52.000;5.954;2022-07-23T02:21:38;3.80;;;1.95;;
67930;SDS011;54726;52.000;5.954;2022-07-23T02:22:39;5.72;;;2.20;;
67930;SDS011;54726;52.000;5.954;2022-07-23T02:23:40;4.07;;;2.22;;
67930;SDS011;54726;52.000;5.954;2022-07-23T02:24:41;5.88;;;2.30;;
67930;SDS011;54726;52.000;5.954;2022-07-23T02:25:41;2.47;;;1.75;;
67930;SDS011;54726;52.000;5.954;2022-07-23T02:26:42;5.88;;;2.63;;
67930;SDS011;54726;52.000;5.954;2022-07-23T02:27:42;6.35;;;2.33;;
67930;SDS011;54726;52.000;5.954;2022-07-23T02:28:43;3.58;;;2.10;;
67930;SDS011;54726;52.000;5.954;2022-07-23T02:29:43;7.70;;;2.28;;
67930;SDS011;54726;52.000;5.954;2022-07-23T02:30:44;5.22;;;2.20;;
67930;SDS011;54726;52.000;5.954;2022-07-23T02:31:44;5.57;;;2.22;;
67930;SDS011;54726;52.000;5.954;2022-07-23T02:32:44;4.40;;;2.38;;
67930;SDS011;54726;52.000;5.954;2022-07-23T02:33:45;4.43;;;2.20;;
67930;SDS011;54726;52.000;5.954;2022-07-23T02:34:45;7.22;;;2.45;;
67930;SDS011;54726;52.000;5.954;2022-07-23T02:35:45;4.30;;;1.95;;
67930;SDS011;54726;52.000;5.954;2022-07-23T02:36:46;4.70;;;2.22;;
67930;SDS011;54726;52.000;5.954;2022-07-23T02:37:46;8.10;;;2.67;;
67930;SDS011;54726;52.000;5.954;2022-07-23T02:38:48;3.20;;;2.15;;
67930;SDS011;54726;52.000;5.954;2022-07-23T02:39:48;4.00;;;1.95;;
67930;SDS011;54726;52.000;5.954;2022-07-23T02:40:49;2.92;;;1.90;;
67930;SDS011;54726;52.000;5.954;2022-07-23T02:41:49;4.13;;;2.30;;
67930;SDS011;54726;52.000;5.954;2022-07-23T02:42:50;7.65;;;2.50;;
67930;SDS011;54726;52.000;5.954;2022-07-23T02:43:50;4.38;;;2.00;;
67930;SDS011;54726;52.000;5.954;2022-07-23T02:44:51;5.70;;;2.35;;
67930;SDS011;54726;52.000;5.954;2022-07-23T02:45:51;3.30;;;2.10;;
67930;SDS011;54726;52.000;5.954;2022-07-23T02:46:52;4.50;;;2.20;;
67930;SDS011;54726;52.000;5.954;2022-07-23T02:47:52;3.58;;;2.30;;
67930;SDS011;54726;52.000;5.954;2022-07-23T02:48:53;4.25;;;2.30;;
67930;SDS011;54726;52.000;5.954;2022-07-23T02:49:53;5.35;;;2.47;;
67930;SDS011;54726;52.000;5.954;2022-07-23T02:50:54;4.25;;;2.47;;
67930;SDS011;54726;52.000;5.954;2022-07-23T02:51:54;6.60;;;2.40;;
67930;SDS011;54726;52.000;5.954;2022-07-23T02:52:54;3.83;;;2.10;;
67930;SDS011;54726;52.000;5.954;2022-07-23T02:53:56;5.53;;;2.10;;
67930;SDS011;54726;52.000;5.954;2022-07-23T02:54:57;5.90;;;2.85;;
67930;SDS011;54726;52.000;5.954;2022-07-23T02:55:57;3.72;;;2.13;;
67930;SDS011;54726;52.000;5.954;2022-07-23T02:56:57;4.47;;;2.00;;
67930;SDS011;54726;52.000;5.954;2022-07-23T02:57:58;3.20;;;2.20;;
67930;SDS011;54726;52.000;5.954;2022-07-23T02:58:58;8.13;;;2.42;;
67930;SDS011;54726;52.000;5.954;2022-07-23T02:59:59;5.65;;;2.20;;
67930;SDS011;54726;52.000;5.954;2022-07-23T03:00:59;3.30;;;2.40;;
67930;SDS011;54726;52.000;5.954;2022-07-23T03:01:59;2.40;;;1.90;;
67930;SDS011;54726;52.000;5.954;2022-07-23T03:03:00;3.85;;;2.17;;
67930;SDS011;54726;52.000;5.954;2022-07-23T03:04:00;6.93;;;2.25;;
67930;SDS011;54726;52.000;5.954;2022-07-23T03:05:01;5.93;;;1.95;;
67930;SDS011;54726;52.000;5.954;2022-07-23T03:06:01;7.85;;;2.72;;
67930;SDS011;54726;52.000;5.954;2022-07-23T03:07:02;5.15;;;2.20;;
67930;SDS011;54726;52.000;5.954;2022-07-23T03:08:02;5.10;;;2.58;;
67930;SDS011;54726;52.000;5.954;2022-07-23T03:09:05;6.13;;;1.80;;
67930;SDS011;54726;52.000;5.954;2022-07-23T03:10:05;3.33;;;1.90;;
67930;SDS011;54726;52.000;5.954;2022-07-23T03:11:06;6.93;;;2.65;;
67930;SDS011;54726;52.000;5.954;2022-07-23T03:12:07;4.07;;;2.00;;
67930;SDS011;54726;52.000;5.954;2022-07-23T03:13:08;4.78;;;2.17;;
67930;SDS011;54726;52.000;5.954;2022-07-23T03:14:08;5.03;;;1.85;;
67930;SDS011;54726;52.000;5.954;2022-07-23T03:15:09;2.92;;;1.75;;
67930;SDS011;54726;52.000;5.954;2022-07-23T03:16:10;3.10;;;2.00;;
67930;SDS011;54726;52.000;5.954;2022-07-23T03:17:10;3.70;;;1.90;;
67930;SDS011;54726;52.000;5.954;2022-07-23T03:18:10;4.57;;;2.00;;
67930;SDS011;54726;52.000;5.954;2022-07-23T03:19:11;3.53;;;1.88;;
67930;SDS011;54726;52.000;5.954;2022-07-23T03:20:11;2.40;;;1.92;;
67930;SDS011;54726;52.000;5.954;2022-07-23T03:21:12;4.63;;;1.77;;
67930;SDS011;54726;52.000;5.954;2022-07-23T03:22:12;4.25;;;1.90;;
67930;SDS011;54726;52.000;5.954;2022-07-23T03:23:13;4.40;;;1.80;;
67930;SDS011;54726;52.000;5.954;2022-07-23T03:24:14;3.42;;;1.73;;
67930;SDS011;54726;52.000;5.954;2022-07-23T03:25:15;6.25;;;2.17;;
67930;SDS011;54726;52.000;5.954;2022-07-23T03:26:15;6.28;;;2.05;;
67930;SDS011;54726;52.000;5.954;2022-07-23T03:27:16;5.03;;;1.58;;
67930;SDS011;54726;52.000;5.954;2022-07-23T03:28:16;4.38;;;1.80;;
67930;SDS011;54726;52.000;5.954;2022-07-23T03:29:17;2.92;;;1.60;;
67930;SDS011;54726;52.000;5.954;2022-07-23T03:30:18;3.63;;;1.95;;
67930;SDS011;54726;52.000;5.954;2022-07-23T03:31:18;3.50;;;1.80;;
67930;SDS011;54726;52.000;5.954;2022-07-23T03:32:19;5.68;;;1.95;;
67930;SDS011;54726;52.000;5.954;2022-07-23T03:33:19;6.43;;;2.03;;
67930;SDS011;54726;52.000;5.954;2022-07-23T03:34:20;5.50;;;2.10;;
67930;SDS011;54726;52.000;5.954;2022-07-23T03:35:20;5.22;;;2.03;;
67930;SDS011;54726;52.000;5.954;2022-07-23T03:36:21;5.28;;;1.70;;
67930;SDS011;54726;52.000;5.954;2022-07-23T03:37:21;5.80;;;1.73;;
67930;SDS011;54726;52.000;5.954;2022-07-23T03:38:22;7.25;;;1.67;;
67930;SDS011;54726;52.000;5.954;2022-07-23T03:39:23;3.67;;;1.98;;
67930;SDS011;54726;52.000;5.954;2022-07-23T03:40:24;6.28;;;1.95;;
67930;SDS011;54726;52.000;5.954;2022-07-23T03:41:24;5.22;;;1.75;;
67930;SDS011;54726;52.000;5.954;2022-07-23T03:42:25;2.72;;;1.50;;
67930;SDS011;54726;52.000;5.954;2022-07-23T03:43:25;2.10;;;1.50;;
67930;SDS011;54726;52.000;5.954;2022-07-23T03:44:26;3.90;;;2.03;;
67930;SDS011;54726;52.000;5.954;2022-07-23T03:45:26;7.20;;;1.90;;
67930;SDS011;54726;52.000;5.954;2022-07-23T03:46:26;3.53;;;1.40;;
67930;SDS011;54726;52.000;5.954;2022-07-23T03:47:27;5.55;;;1.70;;
67930;SDS011;54726;52.000;5.954;2022-07-23T03:48:27;4.75;;;2.10;;
67930;SDS011;54726;52.000;5.954;2022-07-23T03:49:28;7.18;;;2.00;;
67930;SDS011;54726;52.000;5.954;2022-07-23T03:50:28;10.93;;;2.20;;
67930;SDS011;54726;52.000;5.954;2022-07-23T03:51:29;5.40;;;2.20;;
67930;SDS011;54726;52.000;5.954;2022-07-23T03:52:29;3.35;;;1.95;;
67930;SDS011;54726;52.000;5.954;2022-07-23T03:53:30;5.00;;;2.13;;
67930;SDS011;54726;52.000;5.954;2022-07-23T03:54:31;4.65;;;1.90;;
67930;SDS011;54726;52.000;5.954;2022-07-23T03:55:32;4.70;;;1.55;;
67930;SDS011;54726;52.000;5.954;2022-07-23T03:56:32;9.65;;;2.03;;
67930;SDS011;54726;52.000;5.954;2022-07-23T03:57:32;5.32;;;2.42;;
67930;SDS011;54726;52.000;5.954;2022-07-23T03:58:33;6.45;;;1.83;;
67930;SDS011;54726;52.000;5.954;2022-07-23T03:59:33;8.75;;;1.95;;
67930;SDS011;54726;52.000;5.954;2022-07-23T04:00:34;4.68;;;1.90;;
67930;SDS011;54726;52.000;5.954;2022-07-23T04:01:34;4.53;;;2.13;;
67930;SDS011;54726;52.000;5.954;2022-07-23T04:02:35;5.10;;;1.80;;
67930;SDS011;54726;52.000;5.954;2022-07-23T04:03:36;3.35;;;1.90;;
67930;SDS011;54726;52.000;5.954;2022-07-23T04:04:36;3.47;;;2.10;;
67930;SDS011;54726;52.000;5.954;2022-07-23T04:05:37;7.50;;;2.38;;
67930;SDS011;54726;52.000;5.954;2022-07-23T04:06:37;4.38;;;2.08;;
67930;SDS011;54726;52.000;5.954;2022-07-23T04:07:37;5.15;;;2.20;;
67930;SDS011;54726;52.000;5.954;2022-07-23T04:08:38;8.30;;;2.08;;
67930;SDS011;54726;52.000;5.954;2022-07-23T04:09:40;5.22;;;2.20;;
67930;SDS011;54726;52.000;5.954;2022-07-23T04:10:40;5.75;;;1.88;;
67930;SDS011;54726;52.000;5.954;2022-07-23T04:11:40;10.90;;;2.30;;
67930;SDS011;54726;52.000;5.954;2022-07-23T04:12:41;5.40;;;2.00;;
67930;SDS011;54726;52.000;5.954;2022-07-23T04:13:41;3.58;;;2.00;;
67930;SDS011;54726;52.000;5.954;2022-07-23T04:14:42;6.05;;;2.45;;
67930;SDS011;54726;52.000;5.954;2022-07-23T04:15:43;4.80;;;2.33;;
67930;SDS011;54726;52.000;5.954;2022-07-23T04:16:43;2.60;;;1.80;;
67930;SDS011;54726;52.000;5.954;2022-07-23T04:17:43;4.05;;;2.40;;
67930;SDS011;54726;52.000;5.954;2022-07-23T04:18:44;3.17;;;2.00;;
67930;SDS011;54726;52.000;5.954;2022-07-23T04:19:44;4.70;;;2.13;;
67930;SDS011;54726;52.000;5.954;2022-07-23T04:20:45;5.32;;;2.25;;
67930;SDS011;54726;52.000;5.954;2022-07-23T04:21:45;3.08;;;2.15;;
67930;SDS011;54726;52.000;5.954;2022-07-23T04:22:45;4.07;;;2.10;;
67930;SDS011;54726;52.000;5.954;2022-07-23T04:23:46;5.53;;;2.33;;
67930;SDS011;54726;52.000;5.954;2022-07-23T04:24:48;3.65;;;2.10;;
67930;SDS011;54726;52.000;5.954;2022-07-23T04:25:48;8.25;;;2.50;;
67930;SDS011;54726;52.000;5.954;2022-07-23T04:26:49;9.13;;;2.17;;
67930;SDS011;54726;52.000;5.954;2022-07-23T04:27:49;4.53;;;2.00;;
67930;SDS011;54726;52.000;5.954;2022-07-23T04:28:49;7.72;;;2.47;;
67930;SDS011;54726;52.000;5.954;2022-07-23T04:29:50;4.68;;;2.20;;
67930;SDS011;54726;52.000;5.954;2022-07-23T04:30:50;4.50;;;2.33;;
67930;SDS011;54726;52.000;5.954;2022-07-23T04:31:51;4.13;;;2.50;;
67930;SDS011;54726;52.000;5.954;2022-07-23T04:32:51;5.07;;;2.10;;
67930;SDS011;54726;52.000;5.954;2022-07-23T04:33:51;5.65;;;2.17;;
67930;SDS011;54726;52.000;5.954;2022-07-23T04:34:52;4.82;;;2.58;;
67930;SDS011;54726;52.000;5.954;2022-07-23T04:35:52;5.90;;;2.03;;
67930;SDS011;54726;52.000;5.954;2022-07-23T04:36:53;4.32;;;2.40;;
67930;SDS011;54726;52.000;5.954;2022-07-23T04:37:53;7.20;;;2.25;;
67930;SDS011;54726;52.000;5.954;2022-07-23T04:38:54;3.28;;;2.00;;
67930;SDS011;54726;52.000;5.954;2022-07-23T04:39:56;10.00;;;2.25;;
67930;SDS011;54726;52.000;5.954;2022-07-23T04:40:56;7.13;;;2.20;;
67930;SDS011;54726;52.000;5.954;2022-07-23T04:41:57;3.15;;;2.05;;
67930;SDS011;54726;52.000;5.954;2022-07-23T04:42:57;4.35;;;2.00;;
67930;SDS011;54726;52.000;5.954;2022-07-23T04:43:57;4.07;;;1.83;;
67930;SDS011;54726;52.000;5.954;2022-07-23T04:44:58;3.75;;;1.90;;
67930;SDS011;54726;52.000;5.954;2022-07-23T04:45:58;6.80;;;2.30;;
67930;SDS011;54726;52.000;5.954;2022-07-23T04:46:59;2.63;;;1.90;;
67930;SDS011;54726;52.000;5.954;2022-07-23T04:47:59;9.63;;;2.08;;
67930;SDS011;54726;52.000;5.954;2022-07-23T04:48:59;3.22;;;2.13;;
67930;SDS011;54726;52.000;5.954;2022-07-23T04:50:00;3.97;;;1.70;;
67930;SDS011;54726;52.000;5.954;2022-07-23T04:51:00;4.03;;;1.92;;
67930;SDS011;54726;52.000;5.954;2022-07-23T04:52:01;5.93;;;1.80;;
67930;SDS011;54726;52.000;5.954;2022-07-23T04:53:01;3.15;;;1.83;;
67930;SDS011;54726;52.000;5.954;2022-07-23T04:54:02;5.78;;;1.63;;
67930;SDS011;54726;52.000;5.954;2022-07-23T04:55:04;2.63;;;1.85;;
67930;SDS011;54726;52.000;5.954;2022-07-23T04:56:06;6.38;;;1.67;;
67930;SDS011;54726;52.000;5.954;2022-07-23T04:57:06;5.22;;;1.88;;
67930;SDS011;54726;52.000;5.954;2022-07-23T04:58:07;4.70;;;1.73;;
67930;SDS011;54726;52.000;5.954;2022-07-23T04:59:07;4.43;;;1.75;;
67930;SDS011;54726;52.000;5.954;2022-07-23T05:00:08;3.65;;;2.08;;
67930;SDS011;54726;52.000;5.954;2022-07-23T05:01:09;4.68;;;2.03;;
67930;SDS011;54726;52.000;5.954;2022-07-23T05:02:09;3.10;;;1.55;;
67930;SDS011;54726;52.000;5.954;2022-07-23T05:03:10;3.13;;;1.90;;
67930;SDS011;54726;52.000;5.954;2022-07-23T05:04:10;6.95;;;1.92;;
67930;SDS011;54726;52.000;5.954;2022-07-23T05:05:11;3.42;;;1.92;;
67930;SDS011;54726;52.000;5.954;2022-07-23T05:06:11;2.58;;;1.80;;
67930;SDS011;54726;52.000;5.954;2022-07-23T05:07:12;4.38;;;2.13;;
67930;SDS011;54726;52.000;5.954;2022-07-23T05:08:12;3.50;;;2.10;;
67930;SDS011;54726;52.000;5.954;2022-07-23T05:09:12;4.00;;;2.30;;
67930;SDS011;54726;52.000;5.954;2022-07-23T05:10:14;7.40;;;2.20;;
67930;SDS011;54726;52.000;5.954;2022-07-23T05:11:15;3.08;;;2.05;;
67930;SDS011;54726;52.000;5.954;2022-07-23T05:12:15;6.22;;;2.13;;
67930;SDS011;54726;52.000;5.954;2022-07-23T05:13:16;2.47;;;1.90;;
67930;SDS011;54726;52.000;5.954;2022-07-23T05:14:17;5.72;;;1.80;;
67930;SDS011;54726;52.000;5.954;2022-07-23T05:15:18;3.65;;;2.10;;
67930;SDS011;54726;52.000;5.954;2022-07-23T05:16:18;5.93;;;2.28;;
67930;SDS011;54726;52.000;5.954;2022-07-23T05:17:18;6.22;;;1.70;;
67930;SDS011;54726;52.000;5.954;2022-07-23T05:18:19;7.63;;;2.25;;
67930;SDS011;54726;52.000;5.954;2022-07-23T05:19:20;3.92;;;1.83;;
67930;SDS011;54726;52.000;5.954;2022-07-23T05:20:21;7.78;;;1.83;;
67930;SDS011;54726;52.000;5.954;2022-07-23T05:21:22;2.67;;;1.65;;
67930;SDS011;54726;52.000;5.954;2022-07-23T05:22:22;3.15;;;1.63;;
67930;SDS011;54726;52.000;5.954;2022-07-23T05:23:22;4.07;;;1.80;;
67930;SDS011;54726;52.000;5.954;2022-07-23T05:24:23;5.28;;;2.00;;
67930;SDS011;54726;52.000;5.954;2022-07-23T05:25:25;4.13;;;1.67;;
67930;SDS011;54726;52.000;5.954;2022-07-23T05:26:26;6.95;;;1.60;;
67930;SDS011;54726;52.000;5.954;2022-07-23T05:27:26;3.72;;;1.52;;
67930;SDS011;54726;52.000;5.954;2022-07-23T05:28:26;3.75;;;1.77;;
67930;SDS011;54726;52.000;5.954;2022-07-23T05:29:27;4.05;;;2.00;;
67930;SDS011;54726;52.000;5.954;2022-07-23T05:30:27;3.38;;;1.52;;
67930;SDS011;54726;52.000;5.954;2022-07-23T05:31:28;5.25;;;1.60;;
67930;SDS011;54726;52.000;5.954;2022-07-23T05:32:28;3.53;;;1.67;;
67930;SDS011;54726;52.000;5.954;2022-07-23T05:33:31;4.97;;;1.70;;
67930;SDS011;54726;52.000;5.954;2022-07-23T05:34:31;2.22;;;1.30;;
67930;SDS011;54726;52.000;5.954;2022-07-23T05:35:32;3.97;;;1.63;;
67930;SDS011;54726;52.000;5.954;2022-07-23T05:36:32;3.85;;;1.50;;
67930;SDS011;54726;52.000;5.954;2022-07-23T05:37:33;6.60;;;1.58;;
67930;SDS011;54726;52.000;5.954;2022-07-23T05:38:33;2.75;;;1.27;;
67930;SDS011;54726;52.000;5.954;2022-07-23T05:39:34;4.57;;;3.00;;
67930;SDS011;54726;52.000;5.954;2022-07-23T05:40:35;9.60;;;1.83;;
67930;SDS011;54726;52.000;5.954;2022-07-23T05:41:36;2.92;;;1.30;;
67930;SDS011;54726;52.000;5.954;2022-07-23T05:42:37;5.82;;;1.45;;
67930;SDS011;54726;52.000;5.954;2022-07-23T05:43:38;10.45;;;1.77;;
67930;SDS011;54726;52.000;5.954;2022-07-23T05:44:39;4.20;;;1.45;;
67930;SDS011;54726;52.000;5.954;2022-07-23T05:45:39;5.75;;;1.40;;
67930;SDS011;54726;52.000;5.954;2022-07-23T05:46:39;2.65;;;1.20;;
67930;SDS011;54726;52.000;5.954;2022-07-23T05:47:44;5.93;;;1.10;;
67930;SDS011;54726;52.000;5.954;2022-07-23T05:48:46;4.63;;;1.50;;
67930;SDS011;54726;52.000;5.954;2022-07-23T05:49:46;3.72;;;1.48;;
67930;SDS011;54726;52.000;5.954;2022-07-23T05:50:47;3.72;;;1.20;;
67930;SDS011;54726;52.000;5.954;2022-07-23T05:51:47;3.65;;;1.35;;
67930;SDS011;54726;52.000;5.954;2022-07-23T05:52:49;3.08;;;1.40;;
67930;SDS011;54726;52.000;5.954;2022-07-23T05:53:49;6.97;;;1.52;;
67930;SDS011;54726;52.000;5.954;2022-07-23T05:54:50;3.85;;;1.50;;
67930;SDS011;54726;52.000;5.954;2022-07-23T05:55:52;6.68;;;1.50;;
67930;SDS011;54726;52.000;5.954;2022-07-23T05:56:52;2.25;;;1.10;;
67930;SDS011;54726;52.000;5.954;2022-07-23T05:57:53;3.75;;;1.33;;
67930;SDS011;54726;52.000;5.954;2022-07-23T05:58:53;2.50;;;1.30;;
67930;SDS011;54726;52.000;5.954;2022-07-23T05:59:54;3.28;;;1.40;;
67930;SDS011;54726;52.000;5.954;2022-07-23T06:00:54;1.40;;;1.15;;
67930;SDS011;54726;52.000;5.954;2022-07-23T06:01:54;4.38;;;1.30;;
67930;SDS011;54726;52.000;5.954;2022-07-23T06:02:55;4.57;;;1.20;;
67930;SDS011;54726;52.000;5.954;2022-07-23T06:03:55;2.40;;;1.27;;
67930;SDS011;54726;52.000;5.954;2022-07-23T06:04:56;3.63;;;1.33;;